createdAt,value
2018-12-29T00:01:42.228Z,13.67
2018-12-29T00:07:01.496Z,16.50
2018-12-29T00:09:31.814Z,20.53
2018-12-29T00:12:21.287Z,19.70
2018-12-29T00:14:55.168Z,20.27
2018-12-29T00:17:32.713Z,16.03
2018-12-29T00:20:09.785Z,16.27
2018-12-29T00:22:40.040Z,20.53
2018-12-29T00:25:10.333Z,20.60
2018-12-29T00:27:46.735Z,15.53
2018-12-29T00:30:17.328Z,17.23
2018-12-29T00:32:55.399Z,21.37
2018-12-29T00:35:25.765Z,18.37
2018-12-29T00:37:56.209Z,22.73
2018-12-29T00:40:26.526Z,21.30
2018-12-29T00:42:56.931Z,14.83
2018-12-29T00:45:29.278Z,20.43
2018-12-29T00:48:12.274Z,21.67
2018-12-29T00:50:41.168Z,19.47
2018-12-29T00:53:11.535Z,20.07
2018-12-29T00:55:41.868Z,20.67
2018-12-29T00:58:12.179Z,24.20
2018-12-29T01:00:48.836Z,18.20
2018-12-29T01:03:39.724Z,16.70
2018-12-29T01:06:10.302Z,16.40
2018-12-29T01:08:41.135Z,14.83
2018-12-29T01:11:11.443Z,17.80
2018-12-29T01:13:41.798Z,25.37
2018-12-29T01:19:01.512Z,17.43
2018-12-29T01:21:31.785Z,15.87
2018-12-29T01:24:56.224Z,26.90
2018-12-29T01:27:23.844Z,16.83
2018-12-29T01:29:54.326Z,16.10
2018-12-29T01:32:24.882Z,32.10
2018-12-29T01:35:16.841Z,13.47
2018-12-29T01:37:47.278Z,13.07
2018-12-29T01:40:17.906Z,25.47
2018-12-29T01:42:48.214Z,18.63
2018-12-29T01:45:25.002Z,13.87
2018-12-29T01:47:55.897Z,15.47
2018-12-29T01:50:26.377Z,19.50
2018-12-29T01:52:57.600Z,20.20
2018-12-29T01:55:28.080Z,37.20
2018-12-29T01:57:58.396Z,22.43
2018-12-29T02:00:28.731Z,14.93
2018-12-29T02:02:59.081Z,23.37
2018-12-29T02:05:29.437Z,14.03
2018-12-29T02:07:59.782Z,13.03
2018-12-29T02:10:55.136Z,12.47
2018-12-29T02:13:25.569Z,11.63
2018-12-29T02:18:45.516Z,11.30
2018-12-29T02:21:15.904Z,11.07
2018-12-29T02:23:46.304Z,11.23
2018-12-29T02:26:22.149Z,9.33
2018-12-29T02:28:59.051Z,9.90
2018-12-29T02:31:29.382Z,11.60
2018-12-29T02:33:59.781Z,10.93
2018-12-29T02:36:36.505Z,9.63
2018-12-29T02:39:13.292Z,9.93
2018-12-29T02:41:43.630Z,12.17
2018-12-29T02:44:13.922Z,9.13
2018-12-29T02:46:44.285Z,8.63
2018-12-29T02:49:14.650Z,12.20
2018-12-29T02:54:36.247Z,10.43
2018-12-29T02:57:06.611Z,9.83
2018-12-29T02:59:36.966Z,9.90
2018-12-29T03:02:07.509Z,8.73
2018-12-29T03:04:38.123Z,10.93
2018-12-29T03:07:27.787Z,11.27
2018-12-29T03:13:02.462Z,13.07
2018-12-29T03:15:32.801Z,9.63
2018-12-29T03:20:54.361Z,10.30
2018-12-29T03:23:30.931Z,11.10
2018-12-29T03:26:02.959Z,9.43
2018-12-29T03:28:33.307Z,10.37
2018-12-29T03:31:03.631Z,10.87
2018-12-29T03:33:34.366Z,10.30
2018-12-29T03:36:10.846Z,10.87
2018-12-29T03:38:42.853Z,12.23
2018-12-29T03:41:13.325Z,12.97
2018-12-29T03:44:02.713Z,11.27
2018-12-29T03:46:33.365Z,9.20
2018-12-29T03:49:03.713Z,16.60
2018-12-29T03:51:34.111Z,11.43
2018-12-29T03:54:04.425Z,12.67
2018-12-29T03:56:53.748Z,11.70
2018-12-29T03:59:24.397Z,11.10
2018-12-29T04:01:55.098Z,15.57
2018-12-29T04:04:25.357Z,13.60
2018-12-29T04:06:55.933Z,12.60
2018-12-29T04:09:33.273Z,11.57
2018-12-29T04:12:41.817Z,14.77
2018-12-29T04:15:12.309Z,13.47
2018-12-29T04:17:46.055Z,11.80
2018-12-29T04:20:16.454Z,12.50
2018-12-29T04:22:46.867Z,15.33
2018-12-29T04:28:15.000Z,14.73
2018-12-29T04:30:47.294Z,13.77
2018-12-29T04:33:17.875Z,16.60
2018-12-29T04:35:48.225Z,15.93
2018-12-29T04:38:20.699Z,11.50
2018-12-29T04:41:10.198Z,10.50
2018-12-29T04:43:40.521Z,15.23
2018-12-29T04:46:11.196Z,11.80
2018-12-29T04:48:41.592Z,12.03
2018-12-29T04:51:11.915Z,15.17
2018-12-29T04:53:44.246Z,14.20
2018-12-29T04:56:22.555Z,13.60
2018-12-29T04:58:53.325Z,14.03
2018-12-29T05:01:24.546Z,11.20
2018-12-29T05:04:14.222Z,12.97
2018-12-29T05:06:44.616Z,11.57
2018-12-29T05:09:14.943Z,13.83
2018-12-29T05:14:27.985Z,12.17
2018-12-29T05:16:58.425Z,12.83
2018-12-29T05:19:29.573Z,13.47
2018-12-29T05:21:59.856Z,15.30
2018-12-29T05:24:30.515Z,12.00
2018-12-29T05:27:00.819Z,14.87
2018-12-29T05:29:31.122Z,15.37
2018-12-29T05:34:47.479Z,12.03
2018-12-29T05:37:18.034Z,12.10
2018-12-29T05:39:48.621Z,11.87
2018-12-29T05:42:18.997Z,12.60
2018-12-29T05:44:49.372Z,13.50
2018-12-29T05:50:32.901Z,13.53
2018-12-29T05:56:05.770Z,12.53
2018-12-29T05:58:36.145Z,13.43
2018-12-29T06:01:06.531Z,13.90
2018-12-29T06:03:37.062Z,13.50
2018-12-29T06:06:07.369Z,13.80
2018-12-29T06:08:43.680Z,14.13
2018-12-29T06:11:14.003Z,17.57
2018-12-29T06:13:44.334Z,15.77
2018-12-29T06:16:33.961Z,15.13
2018-12-29T06:19:04.457Z,14.53
2018-12-29T06:21:36.651Z,14.67
2018-12-29T06:24:10.049Z,13.43
2018-12-29T06:26:40.460Z,12.93
2018-12-29T06:29:10.826Z,15.87
2018-12-29T06:31:41.262Z,17.10
2018-12-29T06:34:17.575Z,15.97
2018-12-29T06:36:47.891Z,15.53
2018-12-29T06:39:18.453Z,13.90
2018-12-29T06:41:48.820Z,15.53
2018-12-29T06:47:08.454Z,13.70
2018-12-29T06:49:38.767Z,14.80
2018-12-29T06:52:09.102Z,14.10
2018-12-29T06:54:39.518Z,13.17
2018-12-29T06:57:09.839Z,15.20
2018-12-29T06:59:46.467Z,13.80
2018-12-29T07:02:16.821Z,20.77
2018-12-29T07:04:47.248Z,19.00
2018-12-29T07:07:18.387Z,20.23
2018-12-29T07:09:49.621Z,22.83
2018-12-29T07:12:19.923Z,19.60
2018-12-29T07:14:50.299Z,24.80
2018-12-29T07:17:20.645Z,23.63
2018-12-29T07:19:50.966Z,18.83
2018-12-29T07:22:39.898Z,21.53
2018-12-29T07:25:08.663Z,22.57
2018-12-29T07:27:39.023Z,17.50
2018-12-29T07:30:09.713Z,20.10
2018-12-29T07:32:46.128Z,18.50
2018-12-29T07:35:16.922Z,15.93
2018-12-29T07:41:01.173Z,15.53
2018-12-29T07:43:31.617Z,36.40
2018-12-29T07:46:01.934Z,19.60
2018-12-29T07:51:41.003Z,18.33
2018-12-29T07:54:11.338Z,21.43
2018-12-29T07:56:41.722Z,21.50
2018-12-29T07:59:18.460Z,21.70
2018-12-29T08:01:54.777Z,25.13
2018-12-29T08:07:07.633Z,24.33
2018-12-29T08:09:44.340Z,25.93
2018-12-29T08:12:14.663Z,20.77
2018-12-29T08:14:45.004Z,21.00
2018-12-29T08:17:15.389Z,24.27
2018-12-29T08:19:51.615Z,22.80
2018-12-29T08:22:22.043Z,21.57
2018-12-29T08:30:30.229Z,22.17
2018-12-29T08:33:00.525Z,23.93
2018-12-29T08:35:31.187Z,21.70
2018-12-29T08:38:01.515Z,25.43
2018-12-29T08:40:31.915Z,25.03
2018-12-29T08:43:02.562Z,25.23
2018-12-29T08:45:34.834Z,21.13
2018-12-29T08:48:05.571Z,19.57
2018-12-29T08:50:42.314Z,20.80
2018-12-29T08:53:12.786Z,18.90
2018-12-29T08:55:44.972Z,18.43
2018-12-29T08:58:15.334Z,18.60
2018-12-29T09:00:45.651Z,18.17
2018-12-29T09:03:22.605Z,13.33
2018-12-29T09:06:00.838Z,15.70
2018-12-29T09:08:31.336Z,14.60
2018-12-29T09:11:02.294Z,14.23
2018-12-29T09:14:12.383Z,19.77
2018-12-29T09:22:34.224Z,10.97
2018-12-29T09:25:04.675Z,14.07
2018-12-29T09:27:35.958Z,14.50
2018-12-29T09:30:07.062Z,14.20
2018-12-29T09:32:44.290Z,16.77
2018-12-29T09:35:14.668Z,12.20
2018-12-29T09:37:44.986Z,14.27
2018-12-29T09:40:15.585Z,13.30
2018-12-29T09:42:45.934Z,11.40
2018-12-29T09:45:16.257Z,10.10
2018-12-29T09:47:46.568Z,11.47
2018-12-29T09:50:23.060Z,13.07
2018-12-29T09:53:12.362Z,8.30
2018-12-29T09:55:42.712Z,10.80
2018-12-29T09:58:13.035Z,9.80
2018-12-29T10:00:43.301Z,8.80
2018-12-29T10:03:13.646Z,10.13
2018-12-29T10:05:44.020Z,8.40
2018-12-29T10:08:14.351Z,9.00
2018-12-29T10:10:51.430Z,10.40
2018-12-29T10:13:21.954Z,10.67
2018-12-29T10:15:52.322Z,8.87
2018-12-29T10:18:22.728Z,10.10
2018-12-29T10:20:53.047Z,11.63
2018-12-29T10:23:29.740Z,11.17
2018-12-29T10:26:00.054Z,10.03
2018-12-29T10:28:40.921Z,9.97
2018-12-29T10:31:11.239Z,9.17
2018-12-29T10:34:00.742Z,10.80
2018-12-29T10:36:31.162Z,10.50
2018-12-29T10:39:01.429Z,9.97
2018-12-29T10:41:31.792Z,12.00
2018-12-29T10:44:02.434Z,9.83
2018-12-29T10:46:32.849Z,9.83
2018-12-29T10:49:03.198Z,11.77
2018-12-29T10:51:35.856Z,11.20
2018-12-29T10:54:25.601Z,10.17
2018-12-29T10:57:16.444Z,11.67
2018-12-29T10:59:46.892Z,10.50
2018-12-29T11:02:17.271Z,9.80
2018-12-29T11:04:47.636Z,12.73
2018-12-29T11:07:17.940Z,12.63
2018-12-29T11:09:48.307Z,11.03
2018-12-29T11:12:18.616Z,11.53
2018-12-29T11:14:48.871Z,11.90
2018-12-29T11:17:19.488Z,11.90
2018-12-29T11:19:49.819Z,11.23
2018-12-29T11:22:20.168Z,12.87
2018-12-29T11:25:15.263Z,14.73
2018-12-29T11:27:45.600Z,13.00
2018-12-29T11:30:23.496Z,18.57
2018-12-29T11:32:54.042Z,16.10
2018-12-29T11:35:28.829Z,15.33
2018-12-29T11:41:07.330Z,15.80
2018-12-29T11:43:37.662Z,18.03
2018-12-29T11:49:10.064Z,14.60
2018-12-29T11:51:40.476Z,16.37
2018-12-29T11:54:12.401Z,15.50
2018-12-29T11:57:01.819Z,15.40
2018-12-29T11:59:32.473Z,18.43
2018-12-29T12:04:47.085Z,15.97
2018-12-29T12:07:41.220Z,19.57
2018-12-29T12:10:14.085Z,15.73
2018-12-29T12:13:04.694Z,18.83
2018-12-29T12:15:35.080Z,19.50
2018-12-29T12:18:06.021Z,16.63
2018-12-29T12:20:36.442Z,16.77
2018-12-29T12:23:06.801Z,17.97
2018-12-29T12:25:37.133Z,21.20
2018-12-29T12:28:07.794Z,15.87
2018-12-29T12:30:41.398Z,22.40
2018-12-29T12:33:22.934Z,18.97
2018-12-29T12:35:53.289Z,20.30
2018-12-29T12:38:23.835Z,19.07
2018-12-29T12:40:54.217Z,19.83
2018-12-29T12:43:24.647Z,16.83
2018-12-29T12:46:05.820Z,22.53
2018-12-29T12:48:36.179Z,21.53
2018-12-29T12:53:56.121Z,18.00
2018-12-29T12:56:33.147Z,36.83
2018-12-29T12:59:03.645Z,24.27
2018-12-29T13:01:34.023Z,32.53
2018-12-29T13:04:04.319Z,21.83
2018-12-29T13:06:34.654Z,21.67
2018-12-29T13:12:26.385Z,29.00
2018-12-29T13:14:56.794Z,23.73
2018-12-29T13:17:27.074Z,22.10
2018-12-29T13:19:57.400Z,19.83
2018-12-29T13:22:28.052Z,22.00
2018-12-29T13:25:09.484Z,26.13
2018-12-29T13:30:36.327Z,24.23
2018-12-29T13:33:08.708Z,18.63
2018-12-29T13:35:39.059Z,20.33
2018-12-29T13:38:09.760Z,22.13
2018-12-29T13:43:29.862Z,23.00
2018-12-29T13:46:00.288Z,23.67
2018-12-29T13:48:37.196Z,24.03
2018-12-29T13:51:07.505Z,24.13
2018-12-29T13:53:37.803Z,29.53
2018-12-29T13:56:08.209Z,22.80
2018-12-29T13:58:38.784Z,21.87
2018-12-29T14:01:09.123Z,22.43
2018-12-29T14:03:39.455Z,19.37
2018-12-29T14:06:09.813Z,18.47
2018-12-29T14:11:31.794Z,22.40
2018-12-29T14:14:02.335Z,21.23
2018-12-29T14:16:32.697Z,20.93
2018-12-29T14:19:12.071Z,27.57
2018-12-29T14:21:42.715Z,24.23
2018-12-29T14:27:18.943Z,24.93
2018-12-29T14:29:52.067Z,23.97
2018-12-29T14:32:43.298Z,24.53
2018-12-29T14:35:36.171Z,22.60
2018-12-29T14:38:19.121Z,22.23
2018-12-29T14:43:53.203Z,21.83
2018-12-29T14:49:16.320Z,19.70
2018-12-29T14:55:00.424Z,21.70
2018-12-29T14:57:34.630Z,47.40
2018-12-29T15:00:07.938Z,20.33
2018-12-29T15:02:39.739Z,25.23
2018-12-29T15:05:14.238Z,28.67
2018-12-29T15:07:45.294Z,26.07
2018-12-29T15:10:19.554Z,67.87
2018-12-29T15:18:43.625Z,32.37
2018-12-29T15:21:45.379Z,23.60
2018-12-29T15:24:55.222Z,24.80
2018-12-29T15:27:25.656Z,27.47
2018-12-29T15:29:56.051Z,31.23
2018-12-29T15:35:15.763Z,24.70
2018-12-29T15:37:46.096Z,26.40
2018-12-29T15:40:21.896Z,35.90
2018-12-29T15:42:52.663Z,35.03
2018-12-29T15:45:23.210Z,38.50
2018-12-29T15:47:53.609Z,28.90
2018-12-29T15:50:23.933Z,30.27
2018-12-29T15:53:04.866Z,33.83
2018-12-29T15:55:35.264Z,28.00
2018-12-29T15:58:05.918Z,22.63
2018-12-29T16:00:42.737Z,22.17
2018-12-29T16:03:25.234Z,23.63
2018-12-29T16:06:03.373Z,25.97
2018-12-29T16:08:33.714Z,26.73
2018-12-29T16:11:10.038Z,23.93
2018-12-29T16:13:53.140Z,22.67
2018-12-29T16:16:38.434Z,21.33
2018-12-29T16:19:01.441Z,24.90
2018-12-29T16:21:31.870Z,25.27
2018-12-29T16:24:02.504Z,21.27
2018-12-29T16:26:52.148Z,26.30
2018-12-29T16:32:11.813Z,23.47
2018-12-29T16:34:42.448Z,34.17
2018-12-29T16:37:15.085Z,28.90
2018-12-29T16:39:51.514Z,25.37
2018-12-29T16:42:21.807Z,23.67
2018-12-29T16:44:52.424Z,24.73
2018-12-29T16:47:22.984Z,26.17
2018-12-29T16:49:53.455Z,25.67
2018-12-29T16:52:34.308Z,27.43
2018-12-29T16:55:25.723Z,30.20
2018-12-29T16:58:16.688Z,30.30
2018-12-29T17:00:47.353Z,29.13
2018-12-29T17:03:17.687Z,25.43
2018-12-29T17:05:48.280Z,29.60
2018-12-29T17:08:24.769Z,33.77
2018-12-29T17:10:55.704Z,30.10
2018-12-29T17:13:28.504Z,29.10
2018-12-29T17:15:58.850Z,33.57
2018-12-29T17:18:29.159Z,34.53
2018-12-29T17:20:59.441Z,32.63
2018-12-29T17:23:29.779Z,30.20
2018-12-29T17:26:06.329Z,30.33
2018-12-29T17:28:50.958Z,51.23
2018-12-29T17:31:31.649Z,45.47
2018-12-29T17:34:02.862Z,35.60
2018-12-29T17:36:33.183Z,40.73
2018-12-29T17:42:00.691Z,45.37
2018-12-29T17:44:31.068Z,36.63
2018-12-29T17:47:13.532Z,36.40
2018-12-29T17:49:43.865Z,39.13
2018-12-29T17:52:14.250Z,33.13
2018-12-29T17:54:44.620Z,33.63
2018-12-29T18:00:06.460Z,28.90
2018-12-29T18:02:36.837Z,34.80
2018-12-29T18:07:59.095Z,30.17
2018-12-29T18:10:36.024Z,33.27
2018-12-29T18:13:06.400Z,41.90
2018-12-29T18:15:36.722Z,56.90
2018-12-29T18:18:07.236Z,36.10
2018-12-29T18:20:48.190Z,66.80
2018-12-29T18:23:30.888Z,38.63
2018-12-29T18:25:59.713Z,32.87
2018-12-29T18:28:30.061Z,28.10
2018-12-29T18:31:00.530Z,41.63
2018-12-29T18:33:37.249Z,28.00
2018-12-29T18:39:20.917Z,37.20
2018-12-29T18:41:51.223Z,30.87
2018-12-29T18:44:21.552Z,30.23
2018-12-29T18:47:11.324Z,33.23
2018-12-29T18:52:50.762Z,37.97
2018-12-29T18:55:21.082Z,40.20
2018-12-29T18:57:52.003Z,34.67
2018-12-29T19:00:22.424Z,28.53
2018-12-29T19:02:52.852Z,32.47
2018-12-29T19:08:12.917Z,28.93
2018-12-29T19:13:45.292Z,28.50
2018-12-29T19:16:16.205Z,30.20
2018-12-29T19:18:46.591Z,31.43
2018-12-29T19:21:17.399Z,30.33
2018-12-29T19:23:54.757Z,29.80
2018-12-29T19:26:25.381Z,36.93
2018-12-29T19:28:55.988Z,35.57
2018-12-29T19:31:26.328Z,33.83
2018-12-29T19:33:56.987Z,31.30
2018-12-29T19:36:29.011Z,38.10
2018-12-29T19:39:25.617Z,31.10
2018-12-29T19:41:55.992Z,31.17
2018-12-29T19:44:36.929Z,32.37
2018-12-29T19:49:56.795Z,30.30
2018-12-29T19:52:27.603Z,35.50
2018-12-29T19:54:57.905Z,33.90
2018-12-29T19:57:39.731Z,31.97
2018-12-29T20:00:11.402Z,44.43
2018-12-29T20:02:49.227Z,36.30
2018-12-29T20:05:19.970Z,37.33
2018-12-29T20:08:09.729Z,47.80
2018-12-29T20:10:40.067Z,48.73
2018-12-29T20:13:10.407Z,39.60
2018-12-29T20:15:40.781Z,32.97
2018-12-29T20:18:11.105Z,30.63
2018-12-29T20:20:41.478Z,86.10
2018-12-29T20:23:18.349Z,71.77
2018-12-29T20:28:38.983Z,37.03
2018-12-29T20:31:19.795Z,53.83
2018-12-29T20:33:50.522Z,41.70
2018-12-29T20:36:20.895Z,61.80
2018-12-29T20:38:51.222Z,74.30
2018-12-29T20:44:34.008Z,55.67
2018-12-29T20:47:06.719Z,60.70
2018-12-29T20:50:01.008Z,92.10
2018-12-29T20:52:15.944Z,65.43
2018-12-29T20:55:06.415Z,40.17
2018-12-29T20:57:36.993Z,31.87
2018-12-29T21:00:08.887Z,79.23
2018-12-29T21:02:39.231Z,159.57
2018-12-29T21:05:09.808Z,32.50
2018-12-29T21:10:32.249Z,41.73
2018-12-29T21:15:59.864Z,40.43
2018-12-29T21:18:37.905Z,32.07
2018-12-29T21:21:08.617Z,34.00
2018-12-29T21:23:38.964Z,27.83
2018-12-29T21:26:28.313Z,30.07
2018-12-29T21:28:58.609Z,41.97
2018-12-29T21:31:28.996Z,74.10
2018-12-29T21:34:20.069Z,67.23
2018-12-29T21:36:50.943Z,62.73
2018-12-29T21:39:43.093Z,52.67
2018-12-29T21:42:15.040Z,71.70
2018-12-29T21:44:45.438Z,91.23
2018-12-29T21:47:34.866Z,58.93
2018-12-29T21:50:06.352Z,87.47
2018-12-29T21:52:38.540Z,70.43
2018-12-29T21:55:08.855Z,51.23
2018-12-29T21:57:39.437Z,55.87
2018-12-29T22:00:11.757Z,54.73
2018-12-29T22:02:42.234Z,81.77
2018-12-29T22:08:33.759Z,53.73
2018-12-29T22:11:45.928Z,29.80
2018-12-29T22:14:12.382Z,52.63
2018-12-29T22:16:49.415Z,44.27
2018-12-29T22:19:21.896Z,59.47
2018-12-29T22:21:52.269Z,57.80
2018-12-29T22:24:22.956Z,43.07
2018-12-29T22:26:53.275Z,65.80
2018-12-29T22:29:23.706Z,42.60
2018-12-29T22:31:56.581Z,48.83
2018-12-29T22:37:30.881Z,45.03
2018-12-29T22:40:01.486Z,44.07
2018-12-29T22:42:31.913Z,36.07
2018-12-29T22:45:02.242Z,35.07
2018-12-29T22:47:33.537Z,46.90
2018-12-29T22:53:13.634Z,30.50
2018-12-29T22:55:43.934Z,34.60
2018-12-29T22:58:14.446Z,37.63
2018-12-29T23:01:05.390Z,35.93
2018-12-29T23:03:36.005Z,33.97
2018-12-29T23:06:06.590Z,37.33
2018-12-29T23:08:37.191Z,33.23
2018-12-29T23:11:14.108Z,44.80
2018-12-29T23:13:47.756Z,37.43
2018-12-29T23:16:20.587Z,35.77
2018-12-29T23:19:03.544Z,34.77
2018-12-29T23:21:51.810Z,34.13
2018-12-29T23:24:22.577Z,31.47
2018-12-29T23:26:52.959Z,32.90
2018-12-29T23:29:23.705Z,32.17
2018-12-29T23:31:54.009Z,36.80
2018-12-29T23:34:24.735Z,32.43
2018-12-29T23:37:13.016Z,35.60
2018-12-29T23:39:43.599Z,33.43
2018-12-29T23:42:14.079Z,38.27
2018-12-29T23:45:24.053Z,34.93
2018-12-29T23:47:54.369Z,43.90
2018-12-29T23:50:49.182Z,41.73
2018-12-29T23:53:09.488Z,37.30
2018-12-29T23:55:56.700Z,35.30
2018-12-29T23:58:48.221Z,37.33
